Time;durP1;ratioP1;P1;durP2;ratioP2;P2;SDS_P1;SDS_P2;PMS_P1;PMS_P2;Temp;Humidity;BMP_temperature;BMP_pressure;BME280_temperature;BME280_humidity;BME280_pressure;Samples;Min_cycle;Max_cycle;Signal;HPM_P1;HPM_P2
2020/12/19 00:00:11;;;;;;;13.17;9.70;;;9.50;62.20;;;;;;5010261;28;20202;-42
2020/12/19 00:02:37;;;;;;;12.30;10.00;;;9.60;62.50;;;;;;5005144;28;20194;-41
2020/12/19 00:05:05;;;;;;;11.83;9.70;;;9.50;62.30;;;;;;5006364;28;20252;-41
2020/12/19 00:07:30;;;;;;;10.93;9.10;;;9.60;62.40;;;;;;5010705;28;20204;-41
2020/12/19 00:09:56;;;;;;;21.17;11.00;;;9.40;62.70;;;;;;5008089;28;20444;-41
2020/12/19 00:12:22;;;;;;;11.90;9.60;;;9.40;63.30;;;;;;5010424;28;20201;-41
2020/12/19 00:14:49;;;;;;;10.13;8.30;;;9.40;63.30;;;;;;5009796;28;20233;-41
2020/12/19 00:17:15;;;;;;;13.67;10.20;;;9.40;63.50;;;;;;5010085;28;20433;-41
2020/12/19 00:19:41;;;;;;;11.13;9.10;;;9.30;64.20;;;;;;5009352;28;20532;-41
2020/12/19 00:22:07;;;;;;;13.23;9.43;;;9.00;64.90;;;;;;5010018;28;20863;-42
2020/12/19 00:24:33;;;;;;;14.40;10.30;;;9.40;64.80;;;;;;5010439;28;20201;-41
2020/12/19 00:26:58;;;;;;;11.23;9.83;;;9.80;63.10;;;;;;5010037;28;20479;-41
2020/12/19 00:29:24;;;;;;;10.67;9.50;;;9.60;61.60;;;;;;5010230;28;20564;-41
2020/12/19 00:31:50;;;;;;;11.43;9.60;;;9.30;62.20;;;;;;5009766;28;20210;-41
2020/12/19 00:34:17;;;;;;;11.20;9.30;;;9.30;62.70;;;;;;5010358;28;20238;-41
2020/12/19 00:36:44;;;;;;;14.67;10.57;;;9.00;64.00;;;;;;5008224;28;20641;-41
2020/12/19 00:39:10;;;;;;;13.13;9.57;;;9.10;64.10;;;;;;5010212;28;20425;-41
2020/12/19 00:41:35;;;;;;;12.00;9.97;;;9.40;63.40;;;;;;5010215;28;20435;-41
2020/12/19 00:44:01;;;;;;;10.97;9.83;;;9.60;62.00;;;;;;5010975;28;20235;-42
2020/12/19 00:46:27;;;;;;;12.77;10.20;;;9.80;61.10;;;;;;5009989;28;20190;-41
2020/12/19 00:48:52;;;;;;;10.87;9.50;;;10.00;59.40;;;;;;5003350;28;20718;-41
2020/12/19 00:51:22;;;;;;;11.97;10.20;;;9.90;60.20;;;;;;5012758;28;20642;-42
2020/12/19 00:53:49;;;;;;;12.77;10.73;;;9.90;60.30;;;;;;5014331;28;20241;-41
2020/12/19 00:56:20;;;;;;;13.70;9.83;;;9.90;60.20;;;;;;5014351;28;20487;-41
2020/12/19 00:58:46;;;;;;;11.20;9.50;;;9.80;60.10;;;;;;5013327;28;20433;-41
2020/12/19 01:01:13;;;;;;;14.27;10.60;;;9.50;61.60;;;;;;5013643;28;20441;-41
2020/12/19 01:03:40;;;;;;;10.90;9.23;;;9.30;62.30;;;;;;5014728;28;20440;-41
2020/12/19 01:06:06;;;;;;;13.33;9.90;;;9.60;62.10;;;;;;5011507;28;20487;-41
2020/12/19 01:08:31;;;;;;;11.27;10.10;;;9.90;61.60;;;;;;5013921;28;20437;-42
2020/12/19 01:10:57;;;;;;;13.40;10.27;;;10.00;59.30;;;;;;5014736;28;20440;-42
2020/12/19 01:13:22;;;;;;;11.23;8.70;;;10.00;59.00;;;;;;5012817;28;20209;-42
2020/12/19 01:15:48;;;;;;;14.83;10.03;;;10.00;59.40;;;;;;5014055;28;20186;-42
2020/12/19 01:18:16;;;;;;;12.00;9.53;;;9.50;60.60;;;;;;5012870;28;20282;-41
2020/12/19 01:20:41;;;;;;;12.33;9.73;;;9.20;62.80;;;;;;5014030;28;20190;-41
2020/12/19 01:23:07;;;;;;;10.97;9.77;;;9.20;63.30;;;;;;5013653;28;20433;-41
2020/12/19 01:25:33;;;;;;;9.97;8.97;;;9.30;62.50;;;;;;5013981;28;20241;-41
2020/12/19 01:27:58;;;;;;;12.83;9.47;;;9.20;62.30;;;;;;5013395;28;20194;-41
2020/12/19 01:30:24;;;;;;;13.17;9.00;;;9.30;62.20;;;;;;5013015;28;20190;-41
2020/12/19 01:32:50;;;;;;;15.60;9.50;;;9.30;62.10;;;;;;5011397;28;20206;-41
2020/12/19 01:35:16;;;;;;;10.70;8.90;;;9.50;62.00;;;;;;5014008;28;20597;-42
2020/12/19 01:37:42;;;;;;;11.23;9.30;;;9.50;61.60;;;;;;5012820;28;20531;-42
2020/12/19 01:40:08;;;;;;;9.47;8.57;;;9.70;61.00;;;;;;5013076;28;20920;-41
2020/12/19 01:42:33;;;;;;;10.73;9.63;;;9.60;60.80;;;;;;5020183;28;20288;-41
2020/12/19 01:44:59;;;;;;;9.80;8.80;;;9.60;60.60;;;;;;5013987;28;20190;-41
2020/12/19 01:47:26;;;;;;;12.03;9.90;;;9.50;60.80;;;;;;5015908;28;20197;-41
2020/12/19 01:49:52;;;;;;;10.57;9.47;;;9.30;61.20;;;;;;5009940;28;20261;-41
2020/12/19 01:52:21;;;;;;;10.57;8.97;;;9.40;61.30;;;;;;5014908;28;20483;-41
2020/12/19 01:54:47;;;;;;;10.80;8.53;;;9.40;61.40;;;;;;5013376;28;20496;-42
2020/12/19 01:57:14;;;;;;;10.10;9.00;;;9.60;61.20;;;;;;5012176;28;20470;-41
2020/12/19 01:59:40;;;;;;;10.80;9.73;;;9.80;60.50;;;;;;5012814;28;21082;-41
2020/12/19 02:02:07;;;;;;;12.40;8.43;;;9.60;59.60;;;;;;5010251;28;20478;-41
2020/12/19 02:04:34;;;;;;;12.23;9.57;;;9.50;60.80;;;;;;5013109;28;20436;-41
2020/12/19 02:07:03;;;;;;;12.43;10.00;;;9.70;60.60;;;;;;5012417;28;20439;-41
2020/12/19 02:09:35;;;;;;;12.50;10.43;;;9.90;59.80;;;;;;5013185;28;20501;-41
2020/12/19 02:12:01;;;;;;;11.47;9.30;;;9.80;59.30;;;;;;5012109;28;20540;-41
2020/12/19 02:14:29;;;;;;;9.93;8.93;;;9.60;59.60;;;;;;5013144;28;20857;-41
2020/12/19 02:17:00;;;;;;;11.70;9.50;;;9.30;60.20;;;;;;5009570;28;20438;-41
2020/12/19 02:19:27;;;;;;;13.17;9.67;;;9.30;60.30;;;;;;5005833;28;20440;-41
2020/12/19 02:21:54;;;;;;;13.47;9.50;;;9.30;60.60;;;;;;5012237;28;20904;-41
2020/12/19 02:24:20;;;;;;;10.83;9.43;;;9.40;60.30;;;;;;5023452;28;21018;-41
2020/12/19 02:26:49;;;;;;;10.17;8.13;;;9.50;60.10;;;;;;5012163;28;20531;-41
2020/12/19 02:29:16;;;;;;;11.53;9.37;;;9.60;59.50;;;;;;5010790;28;20205;-41
2020/12/19 02:31:42;;;;;;;11.70;9.10;;;9.50;59.50;;;;;;5012241;28;20440;-41
2020/12/19 02:34:08;;;;;;;10.20;9.10;;;9.40;59.70;;;;;;5012159;28;20489;-41
2020/12/19 02:36:34;;;;;;;10.10;7.80;;;9.60;59.80;;;;;;5011956;28;20920;-41
2020/12/19 02:39:00;;;;;;;10.47;9.40;;;9.60;59.80;;;;;;5009744;28;20269;-41
2020/12/19 02:41:25;;;;;;;11.83;8.70;;;9.70;59.40;;;;;;5010846;28;21013;-42
2020/12/19 02:43:56;;;;;;;9.47;8.23;;;9.70;59.10;;;;;;5012212;28;20209;-42
2020/12/19 02:46:22;;;;;;;9.90;8.30;;;9.60;59.30;;;;;;5011405;28;20260;-41
2020/12/19 02:48:48;;;;;;;12.00;9.03;;;9.60;59.50;;;;;;5014881;28;20476;-41
2020/12/19 02:51:14;;;;;;;11.50;8.80;;;9.70;59.30;;;;;;5011224;28;20432;-41
2020/12/19 02:53:40;;;;;;;10.33;8.60;;;9.80;59.50;;;;;;5011300;28;20491;-41
2020/12/19 02:56:06;;;;;;;8.90;7.83;;;9.80;58.70;;;;;;5009436;28;21395;-42
2020/12/19 02:58:31;;;;;;;8.97;7.60;;;9.80;58.60;;;;;;5011729;28;20228;-42
2020/12/19 03:00:57;;;;;;;8.93;8.10;;;9.50;58.90;;;;;;5011551;28;20198;-41
2020/12/19 03:03:22;;;;;;;9.40;8.07;;;9.20;60.00;;;;;;5010110;28;20202;-42
2020/12/19 03:05:48;;;;;;;13.57;8.97;;;9.20;60.40;;;;;;5011337;28;20532;-41
2020/12/19 03:08:13;;;;;;;14.07;9.00;;;9.10;60.90;;;;;;5010632;28;20231;-41
2020/12/19 03:10:39;;;;;;;9.07;8.17;;;9.10;61.40;;;;;;5012173;28;20245;-41
2020/12/19 03:13:04;;;;;;;8.23;7.13;;;9.00;61.80;;;;;;5010289;28;20201;-42
2020/12/19 03:15:30;;;;;;;9.70;8.47;;;9.00;62.00;;;;;;5011958;28;20268;-41
2020/12/19 03:17:56;;;;;;;10.37;8.67;;;9.00;62.30;;;;;;5009812;28;20201;-41
2020/12/19 03:20:21;;;;;;;8.47;7.40;;;9.00;62.40;;;;;;5011139;28;20201;-42
2020/12/19 03:22:47;;;;;;;10.90;7.83;;;9.10;62.00;;;;;;5009875;28;20704;-41
2020/12/19 03:25:12;;;;;;;8.27;7.20;;;9.30;61.00;;;;;;5008452;28;20218;-41
2020/12/19 03:27:38;;;;;;;8.80;7.90;;;9.40;60.80;;;;;;5010838;28;20197;-43
2020/12/19 03:30:05;;;;;;;8.83;7.93;;;9.50;60.30;;;;;;5010709;28;20213;-41
2020/12/19 03:32:30;;;;;;;12.23;7.63;;;9.60;59.90;;;;;;5010694;28;20190;-41
2020/12/19 03:34:56;;;;;;;8.63;7.73;;;9.70;59.50;;;;;;5011593;28;20557;-41
2020/12/19 03:37:21;;;;;;;8.83;7.93;;;9.70;59.40;;;;;;5010133;28;20638;-41
2020/12/19 03:39:47;;;;;;;9.17;7.70;;;9.70;59.20;;;;;;5011165;28;20198;-41
2020/12/19 03:42:13;;;;;;;10.10;8.10;;;9.90;59.00;;;;;;5010463;28;20665;-41
2020/12/19 03:44:38;;;;;;;9.40;7.70;;;9.90;58.70;;;;;;5011144;28;20195;-41
2020/12/19 03:47:04;;;;;;;8.90;7.20;;;9.80;58.90;;;;;;5010893;28;20193;-41
2020/12/19 03:49:30;;;;;;;9.50;7.10;;;9.60;59.50;;;;;;5010685;28;20226;-42
2020/12/19 03:51:55;;;;;;;9.67;7.07;;;9.60;59.50;;;;;;5008030;28;20225;-41
2020/12/19 03:54:21;;;;;;;10.23;7.40;;;9.70;59.30;;;;;;5011300;28;20234;-42
2020/12/19 03:56:47;;;;;;;9.17;8.27;;;9.80;59.00;;;;;;5010442;28;20252;-42
2020/12/19 03:59:12;;;;;;;9.83;8.83;;;9.90;58.70;;;;;;5009996;28;20190;-41
2020/12/19 04:01:38;;;;;;;9.57;8.27;;;9.70;58.90;;;;;;5009869;28;20198;-41
2020/12/19 04:04:04;;;;;;;10.27;7.87;;;9.60;58.70;;;;;;5010957;28;20194;-42
2020/12/19 04:06:30;;;;;;;9.93;7.90;;;9.70;58.70;;;;;;5009892;28;20221;-41
2020/12/19 04:08:55;;;;;;;9.17;7.27;;;9.80;58.50;;;;;;5009960;28;20487;-41
2020/12/19 04:11:21;;;;;;;10.57;8.00;;;9.70;58.30;;;;;;5010472;28;20205;-42
2020/12/19 04:13:47;;;;;;;10.23;7.87;;;9.80;58.30;;;;;;5010445;28;20588;-41
2020/12/19 04:16:13;;;;;;;8.67;7.77;;;9.70;58.30;;;;;;5010001;28;20202;-41
2020/12/19 04:18:38;;;;;;;9.13;7.83;;;9.80;58.30;;;;;;5010227;28;20192;-41
2020/12/19 04:21:06;;;;;;;9.83;8.30;;;9.70;58.10;;;;;;5008426;28;20201;-41
2020/12/19 04:23:32;;;;;;;9.47;7.90;;;9.70;58.50;;;;;;5010606;28;20198;-41
2020/12/19 04:25:59;;;;;;;16.23;9.00;;;9.70;58.30;;;;;;5009702;28;20433;-42
2020/12/19 04:28:24;;;;;;;8.77;7.97;;;9.70;58.20;;;;;;5009358;28;20436;-41
2020/12/19 04:30:50;;;;;;;10.23;7.97;;;9.80;58.00;;;;;;5010382;28;20499;-41
2020/12/19 04:33:16;;;;;;;10.37;8.27;;;9.80;58.00;;;;;;5009368;28;20194;-41
2020/12/19 04:35:42;;;;;;;9.33;7.10;;;9.80;57.70;;;;;;5010687;28;20625;-41
2020/12/19 04:38:07;;;;;;;8.80;7.83;;;9.70;57.60;;;;;;5003649;28;20498;-41
2020/12/19 04:40:33;;;;;;;9.63;8.20;;;9.70;57.80;;;;;;5010427;28;20272;-41
2020/12/19 04:43:00;;;;;;;8.40;7.50;;;9.60;57.90;;;;;;5009875;28;20239;-41
2020/12/19 04:45:26;;;;;;;8.60;7.40;;;9.30;58.50;;;;;;5010564;28;20194;-41
2020/12/19 04:47:52;;;;;;;9.57;7.77;;;9.30;59.00;;;;;;5012950;28;20468;-41
2020/12/19 04:50:19;;;;;;;9.43;7.97;;;9.20;58.70;;;;;;5009983;28;20525;-41
2020/12/19 04:52:45;;;;;;;10.50;7.90;;;9.20;59.50;;;;;;5008866;28;20210;-41
2020/12/19 04:55:10;;;;;;;9.13;7.57;;;9.10;59.20;;;;;;5009340;28;21278;-41
2020/12/19 04:57:36;;;;;;;10.17;7.47;;;9.00;59.20;;;;;;5010187;28;20205;-41
2020/12/19 05:00:05;;;;;;;9.43;7.17;;;9.00;59.50;;;;;;5009668;28;20194;-41
2020/12/19 05:02:30;;;;;;;8.63;7.73;;;9.00;59.50;;;;;;5009910;28;20524;-41
2020/12/19 05:05:03;;;;;;;8.67;7.67;;;8.80;59.70;;;;;;5009817;28;20511;-41
2020/12/19 05:07:29;;;;;;;8.60;7.30;;;8.70;60.60;;;;;;5009226;28;20222;-41
2020/12/19 05:09:55;;;;;;;7.70;6.90;;;8.70;61.30;;;;;;5008715;28;20479;-41
2020/12/19 05:12:21;;;;;;;9.43;7.23;;;8.60;61.90;;;;;;5009809;28;20256;-42
2020/12/19 05:14:49;;;;;;;8.70;7.13;;;8.70;61.90;;;;;;5010342;28;20485;-41
2020/12/19 05:17:16;;;;;;;12.10;9.03;;;8.90;61.60;;;;;;5007771;28;20182;-41
2020/12/19 05:19:41;;;;;;;8.97;7.83;;;8.60;60.80;;;;;;5009798;28;20494;-41
2020/12/19 05:22:07;;;;;;;8.57;7.67;;;8.50;61.20;;;;;;5009698;28;20424;-41
2020/12/19 05:24:36;;;;;;;8.20;7.33;;;8.40;61.70;;;;;;5010464;28;20221;-41
2020/12/19 05:27:09;;;;;;;10.43;8.70;;;8.30;62.10;;;;;;5009188;28;20190;-41
2020/12/19 05:29:36;;;;;;;10.17;7.50;;;8.20;61.70;;;;;;5009176;28;20948;-41
2020/12/19 05:32:02;;;;;;;9.63;7.30;;;8.30;61.90;;;;;;5009196;28;20439;-41
2020/12/19 05:34:28;;;;;;;8.80;7.70;;;8.20;62.10;;;;;;5009525;28;20485;-41
2020/12/19 05:36:57;;;;;;;7.90;7.00;;;8.10;62.50;;;;;;5011160;28;20436;-41
2020/12/19 05:39:23;;;;;;;8.60;6.70;;;8.00;63.30;;;;;;5012648;28;20757;-42
2020/12/19 05:41:49;;;;;;;9.70;7.63;;;7.80;63.80;;;;;;5012466;28;20516;-41
2020/12/19 05:44:22;;;;;;;9.80;7.30;;;7.70;64.30;;;;;;5011576;28;20528;-42
2020/12/19 05:46:48;;;;;;;9.10;7.40;;;8.00;63.80;;;;;;5005490;28;20448;-42
2020/12/19 05:49:14;;;;;;;8.47;7.50;;;7.80;63.10;;;;;;5011759;28;21157;-41
2020/12/19 05:51:42;;;;;;;20.47;8.33;;;7.60;64.60;;;;;;5012982;28;20436;-41
2020/12/19 05:54:09;;;;;;;9.97;8.57;;;7.90;64.40;;;;;;5012832;28;20488;-41
2020/12/19 05:56:40;;;;;;;10.87;9.33;;;8.20;63.00;;;;;;5012012;28;20461;-41
2020/12/19 05:59:13;;;;;;;10.90;8.70;;;8.30;62.00;;;;;;5012721;28;20435;-41
2020/12/19 06:01:41;;;;;;;9.93;8.53;;;8.40;61.30;;;;;;5011582;28;20437;-41
2020/12/19 06:04:08;;;;;;;11.00;7.50;;;8.30;61.30;;;;;;5013844;28;20502;-41
2020/12/19 06:06:38;;;;;;;9.87;8.20;;;8.00;61.60;;;;;;5025190;28;20525;-41
2020/12/19 06:09:04;;;;;;;10.33;8.03;;;7.90;62.30;;;;;;5012061;28;20428;-41
2020/12/19 06:11:40;;;;;;;12.50;8.73;;;7.90;62.70;;;;;;5008394;28;20429;-41
2020/12/19 06:14:08;;;;;;;9.00;7.60;;;7.80;62.60;;;;;;5011743;28;20480;-42
2020/12/19 06:16:41;;;;;;;9.83;8.13;;;7.80;63.30;;;;;;5011435;28;21007;-41
2020/12/19 06:19:20;;;;;;;10.17;8.00;;;7.90;64.10;;;;;;5012181;28;20940;-41
2020/12/19 06:21:50;;;;;;;9.83;7.33;;;7.70;63.60;;;;;;5012225;28;20433;-41
2020/12/19 06:24:38;;;;;;;10.97;8.80;;;8.00;63.20;;;;;;5012493;28;20436;-41
2020/12/19 06:27:10;;;;;;;8.30;7.50;;;8.00;62.00;;;;;;5012341;28;20436;-42
2020/12/19 06:29:38;;;;;;;8.60;7.67;;;8.20;61.60;;;;;;5012273;28;20441;-41
2020/12/19 06:32:04;;;;;;;11.23;7.03;;;8.20;60.70;;;;;;5011085;28;20471;-42
2020/12/19 06:34:30;;;;;;;8.70;6.80;;;8.40;61.80;;;;;;5011790;28;20489;-42
2020/12/19 06:36:56;;;;;;;7.83;7.07;;;8.70;63.50;;;;;;5011537;28;20437;-42
2020/12/19 06:39:22;;;;;;;9.00;7.30;;;9.00;62.60;;;;;;5007215;28;20221;-42
2020/12/19 06:41:54;;;;;;;9.17;7.23;;;9.40;62.00;;;;;;5011829;28;20465;-42
2020/12/19 06:44:23;;;;;;;11.40;7.87;;;9.60;60.40;;;;;;5012145;28;20441;-42
2020/12/19 06:46:50;;;;;;;8.00;7.20;;;9.80;59.80;;;;;;5009525;28;20445;-42
2020/12/19 06:49:24;;;;;;;10.33;7.83;;;10.10;58.10;;;;;;5010768;28;20572;-42
2020/12/19 06:52:12;;;;;;;8.17;7.13;;;10.30;56.80;;;;;;5011689;28;20435;-42
2020/12/19 06:54:45;;;;;;;7.70;6.70;;;10.20;56.20;;;;;;5011506;28;20484;-41
2020/12/19 06:57:26;;;;;;;7.40;6.60;;;10.10;56.20;;;;;;5011131;28;20503;-42
2020/12/19 06:59:53;;;;;;;7.80;6.83;;;10.10;55.90;;;;;;5011646;28;20527;-42
2020/12/19 07:02:27;;;;;;;9.07;6.70;;;10.30;55.60;;;;;;5011339;28;20431;-42
2020/12/19 07:04:53;;;;;;;7.50;6.67;;;10.40;54.90;;;;;;5010803;28;20464;-42
2020/12/19 07:07:26;;;;;;;8.00;6.77;;;10.50;54.80;;;;;;5016650;28;20468;-42
2020/12/19 07:09:59;;;;;;;9.97;6.90;;;10.30;54.70;;;;;;5011505;28;20773;-42
2020/12/19 07:12:36;;;;;;;7.53;6.70;;;10.00;55.00;;;;;;5011305;28;20825;-42
2020/12/19 07:15:06;;;;;;;9.83;6.90;;;9.90;56.30;;;;;;5011561;28;20488;-42
2020/12/19 07:17:49;;;;;;;7.23;6.20;;;9.90;56.10;;;;;;5010542;28;20444;-42
2020/12/19 07:20:21;;;;;;;8.47;7.17;;;9.60;55.80;;;;;;5011195;28;20946;-42
2020/12/19 07:22:48;;;;;;;6.63;5.53;;;9.70;57.20;;;;;;5011533;28;20808;-42
2020/12/19 07:25:14;;;;;;;6.90;6.00;;;9.70;56.60;;;;;;5011019;28;20437;-42
2020/12/19 07:27:40;;;;;;;8.77;6.70;;;9.70;56.40;;;;;;5010446;28;20445;-42
2020/12/19 07:30:05;;;;;;;9.00;6.80;;;10.00;55.70;;;;;;5011220;28;20197;-42
2020/12/19 07:32:31;;;;;;;9.03;7.00;;;10.30;55.00;;;;;;5011318;28;20720;-41
2020/12/19 07:34:58;;;;;;;10.53;7.13;;;11.00;53.50;;;;;;5009634;28;20226;-42
2020/12/19 07:37:25;;;;;;;7.40;6.70;;;11.10;51.20;;;;;;5010439;28;20190;-42
2020/12/19 07:40:02;;;;;;;7.37;6.67;;;11.40;50.90;;;;;;5010953;28;20549;-42
2020/12/19 07:42:27;;;;;;;7.93;6.80;;;11.70;50.00;;;;;;5010693;28;20437;-42
2020/12/19 07:44:53;;;;;;;8.47;7.60;;;12.10;49.40;;;;;;5011062;28;20934;-42
2020/12/19 07:47:19;;;;;;;7.90;6.83;;;13.00;47.80;;;;;;5009727;28;20306;-43
2020/12/19 07:49:50;;;;;;;7.63;6.30;;;14.00;46.30;;;;;;5003706;28;20321;-42
2020/12/19 07:52:26;;;;;;;7.57;6.87;;;14.40;44.70;;;;;;5008942;28;20467;-42
2020/12/19 07:54:55;;;;;;;7.70;6.90;;;15.30;43.70;;;;;;5010054;28;20546;-42
2020/12/19 07:57:21;;;;;;;10.47;7.90;;;15.90;41.70;;;;;;5008584;28;20449;-42
2020/12/19 07:59:47;;;;;;;8.00;7.20;;;16.00;41.30;;;;;;5010040;28;20490;-42
2020/12/19 08:02:15;;;;;;;8.03;7.00;;;15.70;41.20;;;;;;5007461;28;20433;-42
2020/12/19 08:04:48;;;;;;;9.03;8.17;;;14.60;42.60;;;;;;5010646;28;20480;-42
2020/12/19 08:07:14;;;;;;;9.90;8.90;;;13.90;44.90;;;;;;5010547;28;20433;-42
2020/12/19 08:09:40;;;;;;;9.03;7.00;;;13.40;45.40;;;;;;5009389;28;21210;-42
2020/12/19 08:12:06;;;;;;;6.57;5.97;;;12.90;46.80;;;;;;5009673;28;20198;-42
2020/12/19 08:14:33;;;;;;;7.53;5.93;;;12.30;48.00;;;;;;5009882;28;20287;-42
2020/12/19 08:17:00;;;;;;;6.63;6.00;;;11.60;49.10;;;;;;5009392;28;20443;-42
2020/12/19 08:19:38;;;;;;;8.47;7.67;;;11.40;50.90;;;;;;5008756;28;20456;-42
2020/12/19 08:22:06;;;;;;;8.17;7.40;;;11.40;51.10;;;;;;5004554;28;20476;-42
2020/12/19 08:24:32;;;;;;;8.77;7.87;;;11.10;52.00;;;;;;5010259;28;20429;-42
2020/12/19 08:27:27;;;;;;;9.73;8.10;;;10.40;52.60;;;;;;5010460;28;20494;-42
2020/12/19 08:30:09;;;;;;;9.30;8.33;;;10.20;54.00;;;;;;5007937;28;21260;-41
2020/12/19 08:32:38;;;;;;;9.57;8.40;;;10.10;54.30;;;;;;5009214;28;20452;-42
2020/12/19 08:35:04;;;;;;;9.83;8.00;;;10.20;54.20;;;;;;5008377;28;20579;-42
2020/12/19 08:37:31;;;;;;;8.90;7.80;;;10.00;54.30;;;;;;5008983;28;20588;-42
2020/12/19 08:40:12;;;;;;;8.60;6.80;;;10.40;54.60;;;;;;5009735;28;20929;-42
2020/12/19 08:42:38;;;;;;;11.40;7.53;;;10.30;53.50;;;;;;5006806;28;20472;-42
2020/12/19 08:45:11;;;;;;;8.60;7.70;;;10.10;54.30;;;;;;5009643;28;20807;-42
2020/12/19 08:47:42;;;;;;;9.93;8.40;;;10.30;54.60;;;;;;5008725;28;20502;-42
2020/12/19 08:50:08;;;;;;;11.50;8.17;;;10.10;54.90;;;;;;5009383;28;20460;-42
2020/12/19 08:52:36;;;;;;;9.60;7.90;;;10.10;55.20;;;;;;5009476;28;20424;-41
2020/12/19 08:55:02;;;;;;;8.80;7.73;;;10.20;55.40;;;;;;5009985;28;20257;-42
2020/12/19 08:57:29;;;;;;;8.50;7.33;;;10.20;55.00;;;;;;5008172;28;20451;-42
2020/12/19 09:00:14;;;;;;;8.87;7.97;;;10.30;55.10;;;;;;5008210;28;20556;-42
2020/12/19 09:02:44;;;;;;;8.27;7.23;;;10.30;54.80;;;;;;5007062;28;21292;-42
2020/12/19 09:05:10;;;;;;;9.47;7.87;;;10.00;55.00;;;;;;5012198;28;20478;-42
2020/12/19 09:07:37;;;;;;;10.30;7.70;;;9.70;56.70;;;;;;5006240;28;20541;-42
2020/12/19 09:10:31;;;;;;;10.07;6.90;;;10.10;56.00;;;;;;5010442;28;20457;-42
2020/12/19 09:13:19;;;;;;;7.77;6.90;;;10.00;55.30;;;;;;5005808;28;20502;-42
2020/12/19 09:15:45;;;;;;;7.47;6.40;;;10.10;55.70;;;;;;5008736;28;20546;-42
2020/12/19 09:18:15;;;;;;;8.83;6.73;;;10.00;55.30;;;;;;5013059;28;20495;-42
2020/12/19 09:20:41;;;;;;;8.10;6.83;;;9.90;56.40;;;;;;5013335;28;21312;-42
2020/12/19 09:23:07;;;;;;;9.67;6.73;;;9.70;57.40;;;;;;5010828;28;20532;-42
2020/12/19 09:25:33;;;;;;;7.13;6.43;;;9.90;58.20;;;;;;5012050;28;20965;-42
2020/12/19 09:27:59;;;;;;;7.43;6.07;;;10.20;56.00;;;;;;5011626;28;20259;-42
2020/12/19 09:30:25;;;;;;;7.43;6.63;;;10.70;55.30;;;;;;5012711;28;20527;-41
2020/12/19 09:32:51;;;;;;;7.50;6.70;;;11.20;54.30;;;;;;5014460;28;20221;-41
2020/12/19 09:35:17;;;;;;;7.13;5.90;;;11.70;53.30;;;;;;5013181;28;20548;-41
2020/12/19 09:37:42;;;;;;;8.53;7.00;;;11.90;52.40;;;;;;5011897;28;20278;-41
2020/12/19 09:40:08;;;;;;;6.90;5.80;;;12.30;51.80;;;;;;5013517;28;20189;-41
2020/12/19 09:42:33;;;;;;;6.40;5.80;;;12.30;50.50;;;;;;5011250;28;20190;-41
2020/12/19 09:44:59;;;;;;;7.93;6.10;;;12.30;50.60;;;;;;5011623;28;20198;-41
2020/12/19 09:47:25;;;;;;;6.83;6.23;;;12.60;50.30;;;;;;5011640;28;20201;-41
2020/12/19 09:49:50;;;;;;;8.13;6.70;;;12.70;50.10;;;;;;5010490;28;20727;-41
2020/12/19 09:52:16;;;;;;;6.87;5.97;;;12.80;49.30;;;;;;5010964;28;20205;-41
2020/12/19 09:54:42;;;;;;;7.23;6.53;;;13.20;49.20;;;;;;5010899;28;20296;-41
2020/12/19 09:57:07;;;;;;;7.40;6.50;;;13.30;48.00;;;;;;5012152;28;20201;-41
2020/12/19 09:59:33;;;;;;;7.10;6.40;;;13.50;48.10;;;;;;5012958;28;20198;-41
2020/12/19 10:01:58;;;;;;;6.73;6.03;;;13.50;47.80;;;;;;5012065;28;20202;-41
2020/12/19 10:04:24;;;;;;;7.63;6.27;;;13.70;47.50;;;;;;5013264;28;20205;-41
2020/12/19 10:06:52;;;;;;;6.40;5.80;;;14.00;47.30;;;;;;5012795;28;20234;-41
2020/12/19 10:09:18;;;;;;;6.90;6.03;;;14.20;46.90;;;;;;5013103;28;20194;-41
2020/12/19 10:11:44;;;;;;;7.80;7.10;;;14.20;46.30;;;;;;5012535;28;20985;-41
2020/12/19 10:14:10;;;;;;;8.20;6.63;;;14.30;46.80;;;;;;5013448;28;20472;-41
2020/12/19 10:16:36;;;;;;;6.40;5.80;;;14.40;46.20;;;;;;5011067;28;20213;-41
2020/12/19 10:19:02;;;;;;;7.77;7.07;;;14.40;46.70;;;;;;5011706;28;20285;-41
2020/12/19 10:21:27;;;;;;;10.30;6.10;;;14.70;46.00;;;;;;5008351;28;20520;-41
2020/12/19 10:23:53;;;;;;;6.63;5.80;;;14.60;45.60;;;;;;5000594;28;20281;-41
2020/12/19 10:26:20;;;;;;;6.57;5.97;;;14.60;46.10;;;;;;5009066;28;20208;-41
2020/12/19 10:28:45;;;;;;;9.40;5.80;;;15.00;45.60;;;;;;5012849;28;20198;-41
2020/12/19 10:31:11;;;;;;;8.37;5.70;;;15.10;45.30;;;;;;5010272;28;20455;-42
2020/12/19 10:33:37;;;;;;;7.03;6.33;;;15.40;44.90;;;;;;5006074;28;20225;-42
2020/12/19 10:36:02;;;;;;;8.97;5.93;;;15.90;44.50;;;;;;5008127;28;20213;-40
2020/12/19 10:38:28;;;;;;;8.47;6.50;;;16.50;43.60;;;;;;5005072;28;20186;-41
2020/12/19 10:40:53;;;;;;;7.43;6.40;;;16.90;41.80;;;;;;5004089;28;20200;-40
2020/12/19 10:43:19;;;;;;;8.50;5.80;;;17.20;41.80;;;;;;5009728;28;20206;-41
2020/12/19 10:45:45;;;;;;;9.93;5.67;;;17.50;41.20;;;;;;5010675;28;20283;-40
2020/12/19 10:48:11;;;;;;;6.80;6.10;;;17.80;40.50;;;;;;5007303;28;20230;-41
2020/12/19 10:50:37;;;;;;;5.70;5.20;;;18.00;40.30;;;;;;5009667;28;20504;-41
2020/12/19 10:53:03;;;;;;;10.93;5.90;;;18.00;39.60;;;;;;5010825;28;20950;-41
2020/12/19 10:55:28;;;;;;;10.47;6.20;;;18.00;39.70;;;;;;5010384;28;20310;-41
2020/12/19 10:57:54;;;;;;;6.33;5.00;;;17.90;39.80;;;;;;5008099;28;20194;-41
2020/12/19 11:00:19;;;;;;;7.13;5.50;;;17.50;40.20;;;;;;5008561;28;20201;-41
2020/12/19 11:02:45;;;;;;;6.63;6.03;;;17.20;40.80;;;;;;5011413;28;20217;-40
2020/12/19 11:05:10;;;;;;;6.37;5.77;;;17.00;41.20;;;;;;5010772;28;20282;-41
2020/12/19 11:07:36;;;;;;;6.93;5.90;;;17.30;41.10;;;;;;5009969;28;20217;-42
2020/12/19 11:10:03;;;;;;;7.73;5.83;;;17.50;40.80;;;;;;5010393;28;20271;-41
2020/12/19 11:12:28;;;;;;;10.23;7.30;;;17.60;40.20;;;;;;5010848;28;20650;-40
2020/12/19 11:14:54;;;;;;;6.33;5.63;;;17.30;40.70;;;;;;5000796;28;20567;-41
2020/12/19 11:17:19;;;;;;;9.50;6.83;;;17.10;41.60;;;;;;5006672;28;20535;-42
2020/12/19 11:19:45;;;;;;;7.53;6.83;;;17.40;41.30;;;;;;5012656;28;20197;-41
2020/12/19 11:22:11;;;;;;;5.93;5.23;;;17.50;40.90;;;;;;5010076;28;20738;-41
2020/12/19 11:24:36;;;;;;;7.03;6.03;;;17.10;41.30;;;;;;5010859;28;20201;-41
2020/12/19 11:27:02;;;;;;;6.30;5.70;;;17.40;41.60;;;;;;5011348;28;20264;-41
2020/12/19 11:29:28;;;;;;;6.50;4.77;;;17.50;41.30;;;;;;5009407;28;20701;-41
2020/12/19 11:31:53;;;;;;;5.57;5.07;;;17.80;41.70;;;;;;5010604;28;20555;-41
2020/12/19 11:34:19;;;;;;;6.10;5.20;;;18.00;40.40;;;;;;5010276;28;20280;-41
2020/12/19 11:36:45;;;;;;;6.20;5.60;;;18.10;40.80;;;;;;5010613;28;20301;-41
2020/12/19 11:39:11;;;;;;;7.90;6.00;;;18.40;40.60;;;;;;5010536;28;20951;-41
2020/12/19 11:41:38;;;;;;;8.47;5.30;;;18.60;40.30;;;;;;5010850;28;20198;-41
2020/12/19 11:44:05;;;;;;;5.80;5.20;;;18.60;39.70;;;;;;5011163;28;20456;-41
2020/12/19 11:46:31;;;;;;;7.63;6.50;;;18.60;39.90;;;;;;5007708;28;20914;-41
2020/12/19 11:48:57;;;;;;;6.63;5.63;;;18.60;40.10;;;;;;5009541;28;20573;-41
2020/12/19 11:51:31;;;;;;;5.70;5.20;;;18.60;40.20;;;;;;5010844;28;20205;-41
2020/12/19 11:54:01;;;;;;;9.27;5.13;;;18.70;39.80;;;;;;5011149;28;20590;-41
2020/12/19 11:56:28;;;;;;;8.90;5.93;;;18.90;39.60;;;;;;5009780;28;20437;-42
2020/12/19 11:58:54;;;;;;;6.03;5.40;;;19.10;39.50;;;;;;5017339;28;20531;-41
2020/12/19 12:01:24;;;;;;;8.03;5.80;;;19.20;39.30;;;;;;5010340;28;20555;-41
2020/12/19 12:03:50;;;;;;;6.10;5.50;;;19.40;39.40;;;;;;5010926;28;20209;-41
2020/12/19 12:06:15;;;;;;;7.80;5.77;;;19.50;39.00;;;;;;5010737;28;20437;-41
2020/12/19 12:08:41;;;;;;;5.90;5.30;;;19.50;38.90;;;;;;5010296;28;20293;-41
2020/12/19 12:11:07;;;;;;;6.07;5.50;;;19.60;39.00;;;;;;4999544;28;20979;-41
2020/12/19 12:13:33;;;;;;;6.07;5.47;;;19.40;39.00;;;;;;5008314;28;20285;-41
2020/12/19 12:15:58;;;;;;;7.53;5.50;;;19.50;39.40;;;;;;5010620;28;20915;-41
2020/12/19 12:18:24;;;;;;;6.70;5.83;;;19.70;38.90;;;;;;5008763;28;20190;-41
2020/12/19 12:20:51;;;;;;;6.23;5.63;;;19.80;38.40;;;;;;5016785;28;20229;-41
2020/12/19 12:23:17;;;;;;;6.33;5.40;;;19.80;38.90;;;;;;5010110;28;20661;-41
2020/12/19 12:25:42;;;;;;;6.30;5.13;;;19.90;38.10;;;;;;5008299;28;20441;-41
2020/12/19 12:28:08;;;;;;;6.57;5.90;;;20.00;38.00;;;;;;5008350;28;20226;-41
2020/12/19 12:30:34;;;;;;;5.97;5.37;;;20.10;37.90;;;;;;5010300;28;20711;-41
2020/12/19 12:32:59;;;;;;;6.90;6.10;;;20.20;38.10;;;;;;5010434;28;20205;-41
2020/12/19 12:35:25;;;;;;;6.43;5.70;;;20.30;38.40;;;;;;5010337;28;20481;-41
2020/12/19 12:37:50;;;;;;;6.63;5.93;;;20.40;38.00;;;;;;5003833;28;20714;-41
2020/12/19 12:40:16;;;;;;;5.93;5.33;;;20.40;37.40;;;;;;5001497;28;20186;-41
2020/12/19 12:42:41;;;;;;;6.00;5.40;;;20.50;37.30;;;;;;5006933;28;20190;-41
2020/12/19 12:45:07;;;;;;;5.90;5.03;;;20.70;37.60;;;;;;5009115;28;20269;-41
2020/12/19 12:47:32;;;;;;;6.83;5.13;;;20.80;36.40;;;;;;5015789;28;20193;-41